Latest Weather Observations for Camden

IDN60801

Issued at 8:22 am EDT Wednesday 20 November 2019 (issued every 10 minutes, with the page automatically refreshed every 10 minutes)

About weather observations | Map of weather stations | Latest weather observations for NSW | Other Formats
Station Details ID: 068192 Name: CAMDEN AIRPORT AWS Lat: -34.04 Lon: 150.69 Height: 73.9 m
Data from the previous 72 hours. | See also: Recent months at Camden
Date/Time
EDT
Temp
°C
App
Temp
°C
Dew
Point
°C
Rel
Hum
%
Delta-T
°C
Wind Press
QNH
hPa
Press
MSL
hPa
Rain since
9am
mm
Dir  Spd
km/h
Gust
km/h
Spd
kts
Gust
kts
20/08:00am 17.9 17.1 11.2 65 3.6 SSE 6 9 3 5 1018.4 1018.2 0.0
20/07:30am 17.1 16.2 10.7 66 3.4 SSE 6 9 3 5 1017.9 1017.7 0.0
20/07:00am 16.7 15.7 11.0 69 3.1 SSE 7 9 4 5 1017.6 1017.4 0.0
20/06:30am 16.7 15.7 11.0 69 3.1 SSE 7 9 4 5 1017.4 1017.2 0.0
20/06:00am 16.6 15.8 11.1 70 3.0 S 6 7 3 4 1017.0 1016.8 0.0
20/05:30am 16.5 15.5 11.0 70 3.0 S 7 7 4 4 1016.6 1016.3 0.0
20/05:00am 16.6 15.3 11.1 70 3.0 SW 9 11 5 6 1016.3 1016.0 0.0
20/04:30am 16.3 15.5 11.2 72 2.8 SSW 6 7 3 4 1015.8 1015.5 0.0
20/04:00am 15.9 14.8 11.9 77 2.2 SW 9 9 5 5 1015.7 1015.4 0.0
20/03:30am 15.6 16.2 11.8 78 2.1 CALM 0 6 0 3 1015.8 1015.5 0.0
20/03:00am 15.5 15.7 11.7 78 2.1 SW 2 6 1 3 1015.9 1015.6 0.0
20/02:30am 15.4 16.0 11.8 79 2.0 CALM 0 7 0 4 1015.9 1015.6 0.0
20/02:00am 15.7 15.5 11.7 77 2.2 SSW 4 7 2 4 1016.0 1015.7 0.0
20/01:30am 16.3 15.7 12.3 77 2.2 SSW 7 11 4 6 1016.1 1015.8 0.0
20/01:00am 16.8 16.3 12.7 77 2.3 SSW 7 11 4 6 1016.1 1015.8 0.0
20/12:30am 16.9 16.0 12.6 76 2.4 SSW 9 13 5 7 1016.1 1015.8 0.0
20/12:00am 17.2 16.6 12.3 73 2.7 SSW 7 11 4 6 1016.1 1015.8 0.0
 
Date/Time
EDT
Temp
°C
App
Temp
°C
Dew
Point
°C
Rel
Hum
%
Delta-T
°C
Wind Press
QNH
hPa
Press
MSL
hPa
Rain since
9am
mm
Dir  Spd
km/h
Gust
km/h
Spd
kts
Gust
kts
19/11:30pm 17.8 16.2 12.9 73 2.8 SSW 13 17 7 9 1016.1 1015.8 0.0
19/11:00pm 18.0 16.4 12.9 72 2.9 S 13 19 7 10 1015.7 1015.4 0.0
19/10:30pm 18.5 16.2 13.1 71 3.1 S 17 30 9 16 1015.7 1015.4 0.0
19/10:00pm 18.6 16.8 13.2 71 3.1 SSE 15 24 8 13 1015.5 1015.2 0.0
19/09:30pm 18.9 16.4 13.5 71 3.1 SSE 19 28 10 15 1014.6 1014.4 0.0
19/09:00pm 19.5 16.5 13.7 69 3.3 S 22 37 12 20 1013.6 1013.4 0.0
19/08:30pm 19.8 16.4 13.7 68 3.5 SSE 24 35 13 19 1012.5 1012.3 0.0
19/08:00pm 20.4 16.7 13.8 66 3.8 SSE 26 39 14 21 1011.7 1011.5 0.0
19/07:30pm 21.7 18.1 13.1 58 4.9 SSE 24 44 13 24 1010.7 1010.5 0.0
19/07:03pm 24.7 19.7 10.9 42 7.7 SSE 28 46 15 25 1009.6 1009.4 0.0
19/07:00pm 25.0 19.5 10.5 40 8.1 SSE 30 46 16 25 1009.4 1009.2 0.0
19/06:55pm 26.1 20.9 9.0 34 9.3 SE 26 46 14 25 1008.9 1008.7 0.0
19/06:30pm 31.1 26.0 0.5 14 14.9 E 17 28 9 15 1007.7 1007.5 0.0
19/06:00pm 32.4 25.6 0.5 13 15.7 ENE 26 37 14 20 1006.6 1006.4 0.0
19/05:30pm 34.2 29.1 0.8 12 16.7 ENE 17 28 9 15 1006.4 1006.2 0.0
19/05:00pm 36.9 30.9 -2.7 8 19.1 SW 19 28 10 15 1006.2 1006.0 0.0
19/04:30pm 37.6 32.1 -2.2 8 19.4 WSW 17 26 9 14 1006.3 1006.1 0.0
19/04:00pm 37.5 32.0 -2.3 8 19.4 W 17 28 9 15 1006.3 1006.1 0.0
19/03:30pm 37.1 30.8 -4.4 7 19.4 SW 20 30 11 16 1006.4 1006.2 0.0
19/03:00pm 37.2 29.6 -2.5 8 19.2 WSW 28 41 15 22 1006.9 1006.7 0.0
19/02:30pm 37.5 31.4 -2.3 8 19.3 WSW 20 32 11 17 1007.3 1007.1 0.0
19/02:00pm 36.4 29.8 -3.1 8 18.8 WSW 22 43 12 23 1007.8 1007.6 0.0
19/01:32pm 35.6 28.4 -2.1 9 18.1 W 26 46 14 25 1008.2 1008.0 0.0
19/01:30pm 35.8 28.4 -3.5 8 18.5 WNW 26 46 14 25 1008.3 1008.1 0.0
19/01:27pm 36.7 30.7 -1.3 9 18.6 W 20 46 11 25 1008.3 1008.1 0.0
19/01:00pm 35.4 28.2 -2.3 9 18.1 W 26 43 14 23 1008.9 1008.7 0.0
19/12:30pm 35.0 27.9 -1.1 10 17.6 W 26 41 14 22 1009.3 1009.1 0.0
19/12:00pm 33.6 28.1 -2.2 10 17.0 SW 17 30 9 16 1009.7 1009.5 0.0
19/11:30am 33.8 27.9 -0.7 11 16.8 WSW 20 39 11 21 1010.4 1010.2 0.0
19/11:00am 33.4 27.5 -1.0 11 16.6 WSW 20 33 11 18 1010.8 1010.6 0.0
19/10:30am 31.1 28.6 4.0 18 14.0 NNW 6 11 3 6 1011.1 1010.9 0.0
19/10:00am 29.6 27.7 5.0 21 12.8 SW 4 9 2 5 1011.5 1011.3 0.0
19/09:30am 27.3 25.9 7.2 28 10.7 N 4 7 2 4 1011.8 1011.6 0.0
19/09:00am 23.9 23.2 11.3 45 7.1 ESE 6 9 3 5 1012.2 1012.0 0.0
19/08:30am 20.5 20.9 11.4 56 5.0 CALM 0 0 0 0 1012.4 1012.2 0.0
19/08:00am 17.0 17.2 11.7 71 2.9 S 2 7 1 4 1012.5 1012.3 0.0
19/07:30am 14.7 14.9 11.7 82 1.6 S 2 7 1 4 1012.5 1012.3 0.0
19/07:00am 12.5 13.2 12.3 99 0.1 CALM 0 0 0 0 1012.6 1012.4 0.0
19/06:30am 10.6 10.8 10.4 99 0.1 CALM 0 0 0 0 1012.4 1012.2 0.0
19/06:26am 10.4 10.5 10.2 99 0.1 CALM 0 0 0 0 1012.4 1012.2 0.0
19/06:00am 9.6 9.5 9.5 99 0.0 CALM 0 0 0 0 1012.1 1011.9 0.0
19/05:30am 9.3 9.0 8.8 97 0.2 CALM 0 0 0 0 1011.8 1011.6 0.0
19/05:00am 10.5 10.6 10.3 99 0.1 CALM 0 0 0 0 1011.4 1011.2 0.0
19/04:30am 10.7 10.9 10.4 98 0.2 CALM 0 0 0 0 1011.3 1011.1 0.0
19/04:08am 10.6 10.7 10.1 97 0.3 CALM 0 0 0 0 1011.3 1011.1 0.0
19/04:00am 10.7 10.8 10.2 97 0.3 CALM 0 0 0 0 1011.2 1011.0 0.0
19/03:35am 11.0 11.2 10.5 97 0.3 CALM 0 0 0 0 1011.5 1011.3 0.0
19/03:30am 11.1 11.4 10.8 98 0.2 CALM 0 0 0 0 1011.5 1011.3 0.0
19/03:00am 11.5 11.8 11.0 97 0.3 CALM 0 0 0 0 1011.6 1011.4 0.0
19/02:39am 11.2 11.0 10.6 96 0.3 N 2 7 1 4 1011.7 1011.5 0.0
19/02:30am 12.1 12.6 11.5 96 0.3 CALM 0 0 0 0 1011.7 1011.5 0.0
19/02:00am 12.4 12.9 11.5 94 0.5 CALM 0 0 0 0 1011.9 1011.7 0.0
19/01:30am 12.8 13.3 11.5 92 0.7 CALM 0 0 0 0 1012.2 1012.0 0.0
19/01:00am 13.4 14.0 11.8 90 0.9 CALM 0 0 0 0 1012.3 1012.1 0.0
19/12:30am 14.1 14.9 12.7 91 0.8 CALM 0 0 0 0 1012.6 1012.4 0.0
19/12:00am 14.9 15.7 12.6 86 1.3 CALM 0 0 0 0 1012.9 1012.7 0.0
 
Date/Time
EDT
Temp
°C
App
Temp
°C
Dew
Point
°C
Rel
Hum
%
Delta-T
°C
Wind Press
QNH
hPa
Press
MSL
hPa
Rain since
9am
mm
Dir  Spd
km/h
Gust
km/h
Spd
kts
Gust
kts
18/11:30pm 14.8 14.5 11.6 81 1.7 WSW 4 9 2 5 1013.1 1012.9 0.0
18/11:00pm 15.7 16.5 12.5 81 1.8 CALM 0 6 0 3 1013.2 1013.0 0.0
18/10:30pm 17.2 18.1 12.9 76 2.4 CALM 0 0 0 0 1013.3 1013.1 0.0
18/10:00pm 18.0 19.0 13.1 73 2.8 CALM 0 0 0 0 1013.3 1013.1 0.0
18/09:30pm 18.4 19.2 12.6 69 3.2 CALM 0 0 0 0 1013.1 1012.9 0.0
18/09:00pm 19.9 19.5 12.9 64 4.0 ENE 7 9 4 5 1012.8 1012.6 0.0
18/08:30pm 21.1 20.3 13.0 60 4.6 ENE 9 13 5 7 1012.5 1012.3 0.0
18/08:00pm 21.8 20.5 12.6 56 5.2 ENE 11 13 6 7 1012.2 1012.0 0.0
18/07:30pm 23.4 22.5 12.7 51 6.2 E 9 15 5 8 1011.8 1011.6 0.0
18/07:00pm 25.0 23.3 12.6 46 7.2 NE 13 19 7 10 1011.3 1011.1 0.0
18/06:30pm 26.0 22.6 12.5 43 7.8 NE 22 30 12 16 1010.8 1010.6 0.0
18/06:00pm 27.1 23.3 12.3 39 8.6 NE 24 30 13 16 1010.6 1010.4 0.0
18/05:30pm 28.0 23.8 11.1 35 9.7 ENE 24 35 13 19 1010.4 1010.2 0.0
18/05:00pm 30.9 26.6 5.3 20 13.5 NE 17 24 9 13 1010.4 1010.2 0.0
18/04:30pm 30.4 26.4 4.9 20 13.3 NNE 15 22 8 12 1010.8 1010.6 0.0
18/04:00pm 30.6 27.6 5.8 21 13.2 ENE 11 20 6 11 1011.1 1010.9 0.0
18/03:30pm 30.0 27.1 4.6 20 13.2 NNE 9 19 5 10 1011.7 1011.5 0.0
18/03:00pm 29.3 25.7 6.7 24 12.1 NNE 15 24 8 13 1012.2 1012.0 0.0
18/02:30pm 28.9 25.0 6.9 25 11.8 NNW 17 26 9 14 1012.7 1012.5 0.0
18/02:00pm 28.5 25.6 8.2 28 11.1 NE 13 26 7 14 1013.4 1013.2 0.0
18/01:30pm 27.8 25.2 7.6 28 10.9 NNW 11 19 6 10 1014.1 1013.9 0.0
18/01:00pm 27.0 23.7 8.0 30 10.3 NNE 15 22 8 12 1014.8 1014.6 0.0
18/12:30pm 26.4 22.3 7.9 31 9.9 NNE 19 28 10 15 1015.1 1014.9 0.0
18/12:00pm 25.0 22.7 8.9 36 8.7 N 11 26 6 14 1016.2 1015.9 0.0
18/11:30am 24.1 20.8 9.7 40 7.9 N 17 28 9 15 1017.0 1016.8 0.0
18/11:00am 23.0 20.7 10.4 45 6.9 N 13 28 7 15 1017.6 1017.4 0.0
18/10:30am 22.5 19.0 10.3 46 6.7 N 19 30 10 16 1018.1 1017.9 0.0
18/10:25am 22.2 18.8 10.4 47 6.5 N 19 30 10 16 1018.2 1018.0 0.0
18/10:00am 20.8 17.2 10.6 52 5.6 N 20 28 11 15 1018.6 1018.4 0.0
18/09:34am 20.4 17.3 11.6 57 4.9 N 19 26 10 14 1019.1 1018.9 0.0
18/09:30am 20.2 17.1 11.7 58 4.7 N 19 26 10 14 1019.2 1019.0 0.0
18/09:00am 19.1 16.7 11.4 61 4.2 N 15 24 8 13 1019.6 1019.4 0.0
18/08:30am 17.7 16.5 11.5 67 3.4 NNW 9 13 5 7 1019.6 1019.4 0.0
18/08:00am 16.8 16.5 11.3 70 3.0 NNW 4 9 2 5 1019.5 1019.3 0.0
18/07:45am 16.0 16.5 11.6 75 2.4 CALM 0 0 0 0 1019.5 1019.3 0.0
18/07:30am 15.5 16.2 12.3 81 1.8 CALM 0 0 0 0 1019.4 1019.2 0.0
18/07:26am 15.1 15.8 12.2 83 1.6 CALM 0 0 0 0 1019.3 1019.1 0.0
18/07:00am 14.0 14.6 11.9 87 1.1 CALM 0 0 0 0 1019.2 1019.0 0.0
18/06:30am 13.4 13.7 10.9 85 1.3 CALM 0 0 0 0 1019.0 1018.8 0.0
18/06:00am 13.5 13.9 11.4 87 1.1 CALM 0 0 0 0 1019.0 1018.8 0.0
18/05:30am 13.1 13.4 11.0 87 1.1 CALM 0 0 0 0 1018.9 1018.7 0.0
18/05:00am 13.8 14.3 11.5 86 1.2 CALM 0 0 0 0 1018.9 1018.7 0.0
18/04:30am 13.8 14.1 11.0 83 1.5 CALM 0 0 0 0 1018.8 1018.6 0.0
18/04:00am 13.7 13.9 10.5 81 1.7 CALM 0 0 0 0 1018.9 1018.7 0.0
18/03:30am 14.7 15.0 10.9 78 2.0 CALM 0 0 0 0 1019.3 1019.1 0.0
18/03:00am 14.9 15.2 10.9 77 2.1 CALM 0 0 0 0 1019.5 1019.3 0.0
18/02:30am 15.3 15.7 11.3 77 2.1 CALM 0 0 0 0 1019.6 1019.4 0.0
18/02:00am 15.3 15.7 11.1 76 2.2 CALM 0 0 0 0 1020.1 1019.9 0.0
18/01:30am 15.6 15.9 10.8 73 2.6 CALM 0 4 0 2 1020.3 1020.1 0.0
18/01:00am 15.7 14.8 10.7 72 2.7 S 6 7 3 4 1020.7 1020.5 0.0
18/12:30am 15.7 15.2 10.7 72 2.7 SSW 4 6 2 3 1020.8 1020.6 0.0
18/12:00am 15.7 14.8 10.7 72 2.7 S 6 9 3 5 1021.1 1020.9 0.0
 
Date/Time
EDT
Temp
°C
App
Temp
°C
Dew
Point
°C
Rel
Hum
%
Delta-T
°C
Wind Press
QNH
hPa
Press
MSL
hPa
Rain since
9am
mm
Dir  Spd
km/h
Gust
km/h
Spd
kts
Gust
kts
17/11:30pm 16.1 15.0 10.6 70 2.9 S 7 9 4 5 1021.3 1021.1 0.0
17/11:00pm 16.0 14.9 10.5 70 2.9 SSE 7 9 4 5 1021.2 1021.0 0.0
17/10:30pm 16.2 14.7 10.5 69 3.0 S 9 13 5 7 1021.4 1021.2 0.0
17/10:00pm 16.3 15.2 10.6 69 3.0 SSE 7 13 4 7 1021.3 1021.1 0.0
17/09:30pm 16.3 14.8 10.6 69 3.0 S 9 13 5 7 1021.2 1021.0 0.0
17/09:00pm 16.3 14.8 10.4 68 3.1 SSE 9 13 5 7 1020.7 1020.5 0.0
17/08:30pm 16.4 14.9 10.5 68 3.1 SE 9 15 5 8 1020.4 1020.2 0.0
17/08:00pm 16.4 14.1 10.5 68 3.1 SE 13 20 7 11 1020.0 1019.8 0.0
17/07:30pm 16.7 14.5 10.8 68 3.2 SE 13 17 7 9 1019.5 1019.3 0.0
17/07:00pm 17.0 14.4 10.6 66 3.4 SE 15 22 8 12 1019.0 1018.8 0.0
17/06:30pm 17.2 14.2 10.6 65 3.5 ESE 17 28 9 15 1018.5 1018.3 0.0
17/06:00pm 17.5 14.2 10.9 65 3.6 ESE 19 32 10 17 1018.0 1017.8 0.0
17/05:30pm 18.2 14.8 10.6 61 4.1 SE 19 24 10 13 1017.4 1017.2 0.0
17/05:00pm 18.7 15.1 10.5 59 4.4 SE 20 33 11 18 1017.0 1016.8 0.0
17/04:30pm 18.8 15.2 10.6 59 4.4 SE 20 30 11 16 1016.4 1016.1 0.0
17/04:00pm 19.2 15.6 10.5 57 4.7 SE 20 32 11 17 1016.1 1015.8 0.0
17/03:30pm 19.6 15.9 10.0 54 5.2 SE 20 33 11 18 1015.8 1015.5 0.0
17/03:00pm 20.7 17.3 11.1 54 5.3 ESE 20 33 11 18 1015.7 1015.4 0.0
17/02:30pm 21.5 17.6 10.9 51 5.8 SE 22 35 12 19 1015.5 1015.2 0.0
17/02:00pm 22.0 18.4 10.5 48 6.3 SSE 20 33 11 18 1015.5 1015.2 0.0
17/01:30pm 22.0 17.5 10.2 47 6.4 SE 24 35 13 19 1015.3 1015.1 0.0
17/01:00pm 23.2 19.3 10.9 46 6.8 ESE 22 33 12 18 1015.2 1015.0 0.0
17/12:30pm 22.5 18.6 9.3 43 7.1 SE 20 32 11 17 1015.1 1014.9 0.0
17/12:00pm 24.1 21.1 12.1 47 6.8 ESE 19 28 10 15 1015.0 1014.8 0.0
17/11:30am 23.3 20.4 12.3 50 6.3 SE 19 26 10 14 1015.0 1014.8 0.0
17/11:00am 22.9 20.1 11.3 48 6.5 SE 17 28 9 15 1015.2 1015.0 0.0
17/10:30am 22.9 19.9 11.9 50 6.2 SE 19 26 10 14 1015.2 1015.0 0.0
17/10:00am 21.1 19.1 12.8 59 4.7 S 15 20 8 11 1015.5 1015.2 0.0
17/09:30am 20.8 19.2 12.8 60 4.6 S 13 19 7 10 1015.5 1015.2 0.0
17/09:00am 20.0 18.8 12.7 63 4.1 S 11 19 6 10 1015.5 1015.2 0.0
17/08:30am 19.0 17.7 13.6 71 3.1 S 13 17 7 9 1015.5 1015.2 0.0

Other formats

Comma delimited format used in spreadsheet applications
http://www.bom.gov.au/fwo/IDN60801/IDN60801.94755.axf

JavaScript Object Notation format (JSON) in row-major order
http://www.bom.gov.au/fwo/IDN60801/IDN60801.94755.json

Data quality

Most of these data are generated automatically and are frequently updated. Quality checks on data are not normally performed. It is possible for incorrect values to appear. Refer to information at About Latest Weather Observations and please check the disclaimer before using these data.